地図

経路データ

SID SEASON NUMBER BASIN SUBBASIN NAME ISO_TIME NATURE LAT LON WMO_WIND WMO_PRES WMO_AGENCY TRACK_TYPE DIST2LAND LANDFALL IFLAG USA_AGENCY USA_ATCF_ID USA_LAT USA_LON USA_RECORD USA_STATUS USA_WIND USA_PRES USA_SSHS USA_R34_NE USA_R34_SE USA_R34_SW USA_R34_NW USA_R50_NE USA_R50_SE USA_R50_SW USA_R50_NW USA_R64_NE USA_R64_SE USA_R64_SW USA_R64_NW USA_POCI USA_ROCI USA_RMW USA_EYE TOKYO_LAT TOKYO_LON TOKYO_GRADE TOKYO_WIND TOKYO_PRES TOKYO_R50_DIR TOKYO_R50_LONG TOKYO_R50_SHORT TOKYO_R30_DIR TOKYO_R30_LONG TOKYO_R30_SHORT TOKYO_LAND CMA_LAT CMA_LON CMA_CAT CMA_WIND CMA_PRES HKO_LAT HKO_LON HKO_CAT HKO_WIND HKO_PRES NEWDELHI_LAT NEWDELHI_LON NEWDELHI_GRADE NEWDELHI_WIND NEWDELHI_PRES NEWDELHI_CI NEWDELHI_DP NEWDELHI_POCI REUNION_LAT REUNION_LON REUNION_TYPE REUNION_WIND REUNION_PRES REUNION_TNUM REUNION_CI REUNION_RMW REUNION_R34_NE REUNION_R34_SE REUNION_R34_SW REUNION_R34_NW REUNION_R50_NE REUNION_R50_SE REUNION_R50_SW REUNION_R50_NW REUNION_R64_NE REUNION_R64_SE REUNION_R64_SW REUNION_R64_NW BOM_LAT BOM_LON BOM_TYPE BOM_WIND BOM_PRES BOM_TNUM BOM_CI BOM_RMW BOM_R34_NE BOM_R34_SE BOM_R34_SW BOM_R34_NW BOM_R50_NE BOM_R50_SE BOM_R50_SW BOM_R50_NW BOM_R64_NE BOM_R64_SE BOM_R64_SW BOM_R64_NW BOM_ROCI BOM_POCI BOM_EYE BOM_POS_METHOD BOM_PRES_METHOD NADI_LAT NADI_LON NADI_CAT NADI_WIND NADI_PRES WELLINGTON_LAT WELLINGTON_LON WELLINGTON_WIND WELLINGTON_PRES DS824_LAT DS824_LON DS824_STAGE DS824_WIND DS824_PRES TD9636_LAT TD9636_LON TD9636_STAGE TD9636_WIND TD9636_PRES TD9635_LAT TD9635_LON TD9635_WIND TD9635_PRES TD9635_ROCI NEUMANN_LAT NEUMANN_LON NEUMANN_CLASS NEUMANN_WIND NEUMANN_PRES MLC_LAT MLC_LON MLC_CLASS MLC_WIND MLC_PRES USA_GUST BOM_GUST BOM_GUST_PER REUNION_GUST REUNION_GUST_PER USA_SEAHGT USA_SEARAD_NE USA_SEARAD_SE USA_SEARAD_SW USA_SEARAD_NW STORM_SPEED STORM_DIR
1943010S16042 1943 7 SI MM NOT_NAMED 1943-01-09 18:00:00 NR -16.3000 42.0000 main 180 180 __________O___ -1 -16.3000 42.0000 7 5 195
1943010S16042 1943 7 SI MM NOT_NAMED 1943-01-09 21:00:00 NR -16.5266 41.9360 main 183 183 __________P___ -1 -16.5266 41.9360 7 5 194
1943010S16042 1943 7 SI MM NOT_NAMED 1943-01-10 00:00:00 NR -16.7726 41.8776 main 202 200 __________P___ -1 -16.7726 41.8776 7 5 191
1943010S16042 1943 7 SI MM NOT_NAMED 1943-01-10 03:00:00 NR -17.0572 41.8304 main 216 216 __________P___ -1 -17.0572 41.8304 7 6 188
1943010S16042 1943 7 SI MM NOT_NAMED 1943-01-10 06:00:00 TS -17.4000 41.8000 main 223 222 _________OO___ -1 -17.4000 41.8000 TC 25 -17.4000 41.8000 1 8 182
1943010S16042 1943 7 SI MM NOT_NAMED 1943-01-10 09:00:00 TS -17.8237 41.7909 main 225 225 _________PP___ -1 -17.8475 41.7901 TC 25 -17.8119 41.7913 1 9 179
1943010S16042 1943 7 SI MM NOT_NAMED 1943-01-10 12:00:00 TS -18.2829 41.8029 main 232 232 _________OP___ -1 -18.3000 41.8000 TC 25 -18.2700 41.8051 1 9 177
1943010S16042 1943 7 SI MM NOT_NAMED 1943-01-10 15:00:00 TS -18.7503 41.8419 main 236 225 _________PP___ -1 -18.7575 41.8425 TC 25 -18.7431 41.8413 1 9 175
1943010S16042 1943 7 SI MM NOT_NAMED 1943-01-10 18:00:00 TS -19.2000 41.9000 main 238 238 _________OO___ -1 -19.2000 41.9000 TC 25 -19.2000 41.9000 1 9 174
1943010S16042 1943 7 SI MM NOT_NAMED 1943-01-10 21:00:00 TS -19.6178 41.9386 main 247 217 _________PP___ -1 -19.6150 41.9351 TC 25 -19.6207 41.9422 1 8 173
1943010S16042 1943 7 SI MM NOT_NAMED 1943-01-11 00:00:00 TS -20.0085 42.0052 main 217 183 _________OP___ -1 -20.0000 42.0000 TC 25 -20.0171 42.0104 1 8 168
1943010S16042 1943 7 SI MM NOT_NAMED 1943-01-11 03:00:00 TS -20.3762 42.1180 main 183 147 _________PP___ -1 -20.3724 42.1126 TC 25 -20.3799 42.1235 1 7 158
1943010S16042 1943 7 SI MM NOT_NAMED 1943-01-11 06:00:00 TS -20.7000 42.3000 main 147 112 _________OO___ -1 -20.7000 42.3000 TC 25 -20.7000 42.3000 1 7 145
1943010S16042 1943 7 SI MM NOT_NAMED 1943-01-11 09:00:00 TS -20.9785 42.5630 main 103 66 _________PP___ -1 -20.9725 42.5700 TC 25 -20.9845 42.5560 1 8 133
1943010S16042 1943 7 SI MM NOT_NAMED 1943-01-11 12:00:00 TS -21.2126 42.8874 main 66 31 _________OP___ -1 -21.2000 42.9000 TC 25 -21.2252 42.8747 1 8 125
1943010S16042 1943 7 SI MM NOT_NAMED 1943-01-11 15:00:00 TS -21.4216 43.2368 main 31 0 _________PP___ -1 -21.4150 43.2426 TC 25 -21.4282 43.2311 1 8 120
1943010S16042 1943 7 SI MM NOT_NAMED 1943-01-11 18:00:00 TS -21.6000 43.6000 main 0 0 _________OO___ -1 -21.6000 43.6000 TC 25 -21.6000 43.6000 1 7 118
1943010S16042 1943 7 SI MM NOT_NAMED 1943-01-11 21:00:00 TS -21.7568 43.9225 main 0 0 _________PP___ -1 -21.7649 43.9501 TC 25 -21.7486 43.8950 1 7 115
1943010S16042 1943 7 SI MM NOT_NAMED 1943-01-12 00:00:00 TS -21.8854 44.2519 main 0 0 _________OP___ -1 -21.9000 44.3000 TC 25 -21.8708 44.2039 1 7 111
1943010S16042 1943 7 SI MM NOT_NAMED 1943-01-12 03:00:00 TS -21.9911 44.5830 main 0 0 _________PP___ -1 -21.9996 44.6053 TC 25 -21.9826 44.5607 1 7 107
1943010S16042 1943 7 SI MM NOT_NAMED 1943-01-12 06:00:00 TS -22.1000 45.0000 main 0 0 _________OO___ -1 -22.1000 45.0000 TC 25 -22.1000 45.0000 1 10 106
1943010S16042 1943 7 SI MM NOT_NAMED 1943-01-12 09:00:00 TS -22.2510 45.5780 main 0 0 _________PP___ -1 -22.2427 45.6049 TC 25 -22.2593 45.5510 1 12 105
1943010S16042 1943 7 SI MM NOT_NAMED 1943-01-12 12:00:00 TS -22.4113 46.2434 main 0 0 _________OP___ -1 -22.4000 46.3000 TC 25 -22.4227 46.1868 1 13 104
1943010S16042 1943 7 SI MM NOT_NAMED 1943-01-12 15:00:00 TS -22.5696 46.9108 main 0 0 _________PP___ -1 -22.5646 46.9424 TC 25 -22.5746 46.8792 1 13 103
1943010S16042 1943 7 SI MM NOT_NAMED 1943-01-12 18:00:00 TS -22.7000 47.6000 main 0 0 _________OO___ -1 -22.7000 47.6000 TC 25 -22.7000 47.6000 1 13 99
1943010S16042 1943 7 SI MM NOT_NAMED 1943-01-12 21:00:00 TS -22.7621 48.2629 main 51 51 _________PP___ -1 -22.7647 48.2853 TC 25 -22.7596 48.2406 1 13 94
1943010S16042 1943 7 SI MM NOT_NAMED 1943-01-13 00:00:00 TS -22.7977 48.9553 main 117 117 _________OP___ -1 -22.8000 49.0000 TC 25 -22.7954 48.9107 1 13 93
1943010S16042 1943 7 SI MM NOT_NAMED 1943-01-13 03:00:00 TS -22.8337 49.6667 main 187 187 _________PP___ -1 -22.8337 49.6830 TC 25 -22.8337 49.6503 1 14 94
1943010S16042 1943 7 SI MM NOT_NAMED 1943-01-13 06:00:00 TS -22.9000 50.5000 main 266 266 _________OO___ -1 -22.9000 50.5000 TC 25 -22.9000 50.5000 1 17 96
1943010S16042 1943 7 SI MM NOT_NAMED 1943-01-13 09:00:00 TS -23.0204 51.5460 main 364 349 _________PP___ -1 -23.0355 51.5973 TC 25 -23.0053 51.4947 1 20 98
1943010S16042 1943 7 SI MM NOT_NAMED 1943-01-13 12:00:00 TS -23.1700 52.7010 main 341 271 _________OP___ -1 -23.2000 52.8000 TC 25 -23.1400 52.6019 1 21 98
1943010S16042 1943 7 SI MM NOT_NAMED 1943-01-13 15:00:00 TS -23.3190 53.8344 main 271 241 _________PP___ -1 -23.3336 53.8858 TC 25 -23.3045 53.7830 1 21 99
1943010S16042 1943 7 SI MM NOT_NAMED 1943-01-13 18:00:00 TS -23.5000 55.0000 main 242 236 _________OO___ -1 -23.5000 55.0000 TC 25 -23.5000 55.0000 1 22 101
1943010S16042 1943 7 SI MM NOT_NAMED 1943-01-13 21:00:00 TS -23.7307 56.2284 main 264 264 _________PP___ -1 -23.7347 56.2350 TC 25 -23.7267 56.2218 1 23 102
1943010S16042 1943 7 SI MM NOT_NAMED 1943-01-14 00:00:00 TS -23.9881 57.4723 main 348 348 _________OP___ -1 -24.0000 57.5000 TC 25 -23.9762 57.4445 1 23 103
1943010S16042 1943 7 SI MM NOT_NAMED 1943-01-14 03:00:00 TS -24.2470 58.6935 main 426 426 _________PP___ -1 -24.2564 58.7168 TC 25 -24.2376 58.6703 1 23 103
1943010S16042 1943 7 SI MM NOT_NAMED 1943-01-14 06:00:00 TS -24.5000 59.9000 main 500 _________OO___ -1 -24.5000 59.9000 TC 25 -24.5000 59.9000 1 23 103

IBTrACS Databaseについて

本データベースは、米国NOAAが公開する1842年以降の世界の熱帯低気圧のベストトラックデータアーカイブInternational Best Track Archive for Climate Stewardship (IBTrACS)を、ウェブで閲覧しやすい形式に変換したものです。

最終更新日:2021-10-21